Time,TemperatureF,DewpointF,PressureIn,WindDirection,WindDirectionDegrees,WindSpeedMPH,WindSpeedGustMPH,Humidity,HourlyPrecipIn,Conditions,Clouds,dailyrainin,SoftwareType,DateUTC
2013-02-24 00:00:00,4.0,-99.9,-100.00,West,265,11.0,18.0,-999,-99.99,,,-99.99,,2013-02-24 07:00:00,
2013-02-24 00:32:00,4.0,-99.9,-100.00,West,265,11.0,18.0,-999,-99.99,,,-99.99,,2013-02-24 07:32:00,
2013-02-24 00:42:00,4.0,-99.9,-100.00,West,265,11.0,18.0,-999,-99.99,,,-99.99,,2013-02-24 07:42:00,
2013-02-24 00:52:00,4.0,-99.9,-100.00,West,265,11.0,18.0,-999,-99.99,,,-99.99,,2013-02-24 07:52:00,
2013-02-24 01:00:00,3.0,-99.9,-100.00,West,268,11.0,17.0,-999,-99.99,,,-99.99,,2013-02-24 08:00:00,
2013-02-24 01:32:00,3.0,-99.9,-100.00,West,268,11.0,17.0,-999,-99.99,,,-99.99,,2013-02-24 08:32:00,
2013-02-24 01:42:00,3.0,-99.9,-100.00,West,268,11.0,17.0,-999,-99.99,,,-99.99,,2013-02-24 08:42:00,
2013-02-24 01:54:00,3.0,-99.9,-100.00,West,268,11.0,17.0,-999,-99.99,,,-99.99,,2013-02-24 08:54:00,
2013-02-24 02:00:00,3.0,-99.9,-100.00,West,273,11.0,20.0,-999,-99.99,,,-99.99,,2013-02-24 09:00:00,
2013-02-24 02:32:00,3.0,-99.9,-100.00,West,273,11.0,20.0,-999,-99.99,,,-99.99,,2013-02-24 09:32:00,
2013-02-24 02:42:00,3.0,-99.9,-100.00,West,273,11.0,20.0,-999,-99.99,,,-99.99,,2013-02-24 09:42:00,
2013-02-24 02:52:00,3.0,-99.9,-100.00,West,273,11.0,20.0,-999,-99.99,,,-99.99,,2013-02-24 09:52:00,
2013-02-24 03:00:00,3.0,-99.9,-100.00,West,268,12.0,25.0,-999,-99.99,,,-99.99,,2013-02-24 10:00:00,
2013-02-24 03:32:00,3.0,-99.9,-100.00,West,268,12.0,25.0,-999,-99.99,,,-99.99,,2013-02-24 10:32:00,
2013-02-24 03:42:00,3.0,-99.9,-100.00,West,268,12.0,25.0,-999,-99.99,,,-99.99,,2013-02-24 10:42:00,
2013-02-24 03:52:00,3.0,-99.9,-100.00,West,268,12.0,25.0,-999,-99.99,,,-99.99,,2013-02-24 10:52:00,
2013-02-24 05:00:00,3.0,-99.9,-100.00,West,266,11.0,20.0,-999,-99.99,,,-99.99,,2013-02-24 12:00:00,
2013-02-24 05:33:00,3.0,-99.9,-100.00,West,266,11.0,20.0,-999,-99.99,,,-99.99,,2013-02-24 12:33:00,
2013-02-24 05:46:00,3.0,-99.9,-100.00,West,266,11.0,20.0,-999,-99.99,,,-99.99,,2013-02-24 12:46:00,
2013-02-24 06:00:00,2.0,-99.9,-100.00,WNW,283,9.0,15.0,-999,-99.99,,,-99.99,,2013-02-24 13:00:00,
2013-02-24 06:36:00,2.0,-99.9,-100.00,WNW,283,9.0,15.0,-999,-99.99,,,-99.99,,2013-02-24 13:36:00,
2013-02-24 06:46:00,2.0,-99.9,-100.00,WNW,283,9.0,15.0,-999,-99.99,,,-99.99,,2013-02-24 13:46:00,
2013-02-24 06:56:00,2.0,-99.9,-100.00,WNW,283,9.0,15.0,-999,-99.99,,,-99.99,,2013-02-24 13:56:00,
2013-02-24 07:00:00,2.0,-99.9,-100.00,WNW,297,9.0,15.0,-999,-99.99,,,-99.99,,2013-02-24 14:00:00,
2013-02-24 07:35:00,2.0,-99.9,-100.00,WNW,297,9.0,15.0,-999,-99.99,,,-99.99,,2013-02-24 14:35:00,
2013-02-24 07:46:00,2.0,-99.9,-100.00,WNW,297,9.0,15.0,-999,-99.99,,,-99.99,,2013-02-24 14:46:00,
2013-02-24 07:55:00,2.0,-99.9,-100.00,WNW,297,9.0,15.0,-999,-99.99,,,-99.99,,2013-02-24 14:55:00,
2013-02-24 08:00:00,2.0,-99.9,-100.00,NNW,341,7.0,16.0,-999,-99.99,,,-99.99,,2013-02-24 15:00:00,
2013-02-24 08:32:00,2.0,-99.9,-100.00,NNW,341,7.0,16.0,-999,-99.99,,,-99.99,,2013-02-24 15:32:00,
2013-02-24 08:43:00,2.0,-99.9,-100.00,NNW,341,7.0,16.0,-999,-99.99,,,-99.99,,2013-02-24 15:43:00,
2013-02-24 08:53:00,2.0,-99.9,-100.00,NNW,341,7.0,16.0,-999,-99.99,,,-99.99,,2013-02-24 15:53:00,
2013-02-24 09:00:00,3.0,-99.9,-100.00,NW,326,4.0,13.0,-999,-99.99,,,-99.99,,2013-02-24 16:00:00,
2013-02-24 09:32:00,3.0,-99.9,-100.00,NW,326,4.0,13.0,-999,-99.99,,,-99.99,,2013-02-24 16:32:00,
2013-02-24 09:42:00,3.0,-99.9,-100.00,NW,326,4.0,13.0,-999,-99.99,,,-99.99,,2013-02-24 16:42:00,
2013-02-24 09:52:00,3.0,-99.9,-100.00,NW,326,4.0,13.0,-999,-99.99,,,-99.99,,2013-02-24 16:52:00,
2013-02-24 10:00:00,4.0,-99.9,-100.00,North,349,2.0,8.0,-999,-99.99,,,-99.99,,2013-02-24 17:00:00,
2013-02-24 10:32:00,4.0,-99.9,-100.00,North,349,2.0,8.0,-999,-99.99,,,-99.99,,2013-02-24 17:32:00,
2013-02-24 10:42:00,4.0,-99.9,-100.00,North,349,2.0,8.0,-999,-99.99,,,-99.99,,2013-02-24 17:42:00,
2013-02-24 10:53:00,4.0,-99.9,-100.00,North,349,2.0,8.0,-999,-99.99,,,-99.99,,2013-02-24 17:53:00,
2013-02-24 11:00:00,7.0,-99.9,-100.00,NNW,338,2.0,8.0,-999,-99.99,,,-99.99,,2013-02-24 18:00:00,
2013-02-24 11:32:00,7.0,-99.9,-100.00,NNW,338,2.0,8.0,-999,-99.99,,,-99.99,,2013-02-24 18:32:00,
2013-02-24 11:42:00,7.0,-99.9,-100.00,NNW,338,2.0,8.0,-999,-99.99,,,-99.99,,2013-02-24 18:42:00,
2013-02-24 11:52:00,7.0,-99.9,-100.00,NNW,338,2.0,8.0,-999,-99.99,,,-99.99,,2013-02-24 18:52:00,
2013-02-24 12:00:00,9.0,-99.9,-100.00,WNW,297,3.0,6.0,-999,-99.99,,,-99.99,,2013-02-24 19:00:00,
2013-02-24 12:32:00,9.0,-99.9,-100.00,WNW,297,3.0,6.0,-999,-99.99,,,-99.99,,2013-02-24 19:32:00,
2013-02-24 12:42:00,9.0,-99.9,-100.00,WNW,297,3.0,6.0,-999,-99.99,,,-99.99,,2013-02-24 19:42:00,
2013-02-24 12:52:00,9.0,-99.9,-100.00,WNW,297,3.0,6.0,-999,-99.99,,,-99.99,,2013-02-24 19:52:00,
2013-02-24 13:00:00,12.0,-99.9,-100.00,West,260,3.0,7.0,-999,-99.99,,,-99.99,,2013-02-24 20:00:00,
2013-02-24 13:32:00,12.0,-99.9,-100.00,West,260,3.0,7.0,-999,-99.99,,,-99.99,,2013-02-24 20:32:00,
2013-02-24 13:42:00,12.0,-99.9,-100.00,West,260,3.0,7.0,-999,-99.99,,,-99.99,,2013-02-24 20:42:00,
2013-02-24 13:52:00,12.0,-99.9,-100.00,West,260,3.0,7.0,-999,-99.99,,,-99.99,,2013-02-24 20:52:00,
2013-02-24 14:00:00,12.0,-99.9,-100.00,West,261,5.0,9.0,-999,-99.99,,,-99.99,,2013-02-24 21:00:00,
2013-02-24 14:32:00,12.0,-99.9,-100.00,West,261,5.0,9.0,-999,-99.99,,,-99.99,,2013-02-24 21:32:00,
2013-02-24 14:42:00,12.0,-99.9,-100.00,West,261,5.0,9.0,-999,-99.99,,,-99.99,,2013-02-24 21:42:00,
2013-02-24 14:52:00,12.0,-99.9,-100.00,West,261,5.0,9.0,-999,-99.99,,,-99.99,,2013-02-24 21:52:00,
2013-02-24 16:00:00,12.0,-99.9,-100.00,WSW,256,6.0,9.0,-999,-99.99,,,-99.99,,2013-02-24 23:00:00,
2013-02-24 16:32:00,12.0,-99.9,-100.00,WSW,256,6.0,9.0,-999,-99.99,,,-99.99,,2013-02-24 23:32:00,
2013-02-24 16:42:00,12.0,-99.9,-100.00,WSW,256,6.0,9.0,-999,-99.99,,,-99.99,,2013-02-24 23:42:00,
2013-02-24 16:52:00,12.0,-99.9,-100.00,WSW,256,6.0,9.0,-999,-99.99,,,-99.99,,2013-02-24 23:52:00,
2013-02-24 17:00:00,11.0,-99.9,-100.00,WSW,256,5.0,10.0,-999,-99.99,,,-99.99,,2013-02-25 00:00:00,
2013-02-24 17:32:00,11.0,-99.9,-100.00,WSW,256,5.0,10.0,-999,-99.99,,,-99.99,,2013-02-25 00:32:00,
2013-02-24 17:42:00,11.0,-99.9,-100.00,WSW,256,5.0,10.0,-999,-99.99,,,-99.99,,2013-02-25 00:42:00,
2013-02-24 17:52:00,11.0,-99.9,-100.00,WSW,256,5.0,10.0,-999,-99.99,,,-99.99,,2013-02-25 00:52:00,
2013-02-24 18:00:00,10.0,-99.9,-100.00,West,267,5.0,8.0,-999,-99.99,,,-99.99,,2013-02-25 01:00:00,
2013-02-24 18:32:00,10.0,-99.9,-100.00,West,267,5.0,8.0,-999,-99.99,,,-99.99,,2013-02-25 01:32:00,
2013-02-24 18:42:00,10.0,-99.9,-100.00,West,267,5.0,8.0,-999,-99.99,,,-99.99,,2013-02-25 01:42:00,
2013-02-24 18:52:00,10.0,-99.9,-100.00,West,267,5.0,8.0,-999,-99.99,,,-99.99,,2013-02-25 01:52:00,
2013-02-24 19:00:00,5.0,-99.9,-100.00,WSW,256,2.0,6.0,-999,-99.99,,,-99.99,,2013-02-25 02:00:00,
2013-02-24 19:32:00,5.0,-99.9,-100.00,WSW,256,2.0,6.0,-999,-99.99,,,-99.99,,2013-02-25 02:32:00,
2013-02-24 19:42:00,5.0,-99.9,-100.00,WSW,256,2.0,6.0,-999,-99.99,,,-99.99,,2013-02-25 02:42:00,
2013-02-24 19:52:00,5.0,-99.9,-100.00,WSW,256,2.0,6.0,-999,-99.99,,,-99.99,,2013-02-25 02:52:00,
2013-02-24 20:00:00,5.0,-99.9,-100.00,SW,216,2.0,4.0,-999,-99.99,,,-99.99,,2013-02-25 03:00:00,
2013-02-24 20:32:00,5.0,-99.9,-100.00,SW,216,2.0,4.0,-999,-99.99,,,-99.99,,2013-02-25 03:32:00,
2013-02-24 20:42:00,5.0,-99.9,-100.00,SW,216,2.0,4.0,-999,-99.99,,,-99.99,,2013-02-25 03:42:00,
2013-02-24 20:52:00,5.0,-99.9,-100.00,SW,216,2.0,4.0,-999,-99.99,,,-99.99,,2013-02-25 03:52:00,
2013-02-24 21:00:00,7.0,-99.9,-100.00,West,274,4.0,5.0,-999,-99.99,,,-99.99,,2013-02-25 04:00:00,
2013-02-24 21:32:00,7.0,-99.9,-100.00,West,274,4.0,5.0,-999,-99.99,,,-99.99,,2013-02-25 04:32:00,
2013-02-24 21:42:00,7.0,-99.9,-100.00,West,274,4.0,5.0,-999,-99.99,,,-99.99,,2013-02-25 04:42:00,
2013-02-24 21:52:00,7.0,-99.9,-100.00,West,274,4.0,5.0,-999,-99.99,,,-99.99,,2013-02-25 04:52:00,
2013-02-24 22:00:00,6.0,-99.9,-100.00,WNW,292,3.0,6.0,-999,-99.99,,,-99.99,,2013-02-25 05:00:00,
2013-02-24 22:32:00,6.0,-99.9,-100.00,WNW,292,3.0,6.0,-999,-99.99,,,-99.99,,2013-02-25 05:32:00,
2013-02-24 22:42:00,6.0,-99.9,-100.00,WNW,292,3.0,6.0,-999,-99.99,,,-99.99,,2013-02-25 05:42:00,
2013-02-24 22:52:00,6.0,-99.9,-100.00,WNW,292,3.0,6.0,-999,-99.99,,,-99.99,,2013-02-25 05:52:00,
2013-02-24 23:00:00,5.0,-99.9,-100.00,West,265,4.0,7.0,-999,-99.99,,,-99.99,,2013-02-25 06:00:00,
2013-02-24 23:32:00,5.0,-99.9,-100.00,West,265,4.0,7.0,-999,-99.99,,,-99.99,,2013-02-25 06:32:00,
2013-02-24 23:42:00,5.0,-99.9,-100.00,West,265,4.0,7.0,-999,-99.99,,,-99.99,,2013-02-25 06:42:00,
2013-02-24 23:52:00,5.0,-99.9,-100.00,West,265,4.0,7.0,-999,-99.99,,,-99.99,,2013-02-25 06:52:00,